Goddard, KS

8:03 AM CDT on April 28, 2015 (GMT -0500)
Goddard North | | Change Station
CLOSE
Current Station
Personal Weather Station
Location: Goddard, KS
Elevation: 1473 ft
Nearby Weather Stations

Elev 1473 ft 37.67 °N, 97.58 °W | Updated 7 minutes ago

Mostly Cloudy
Mostly Cloudy
46.8 °F
Feels Like 44 °F
N
5.8
Wind Variable Wind from NE

Today
High -- | Low -- °F
--% Chance of Precip.
Yesterday
High -- | Low -- °F
Precip. -- in
6:38 AM 8:17 PM
Waxing Gibbous, 73% visible
Pressure 30.17 in
Visibility 10.0 miles
Clouds Scattered Clouds 15000 ft
Mostly Cloudy 18000 ft
Mostly Cloudy 25000 ft
Windchill 44 °F
Dew Point 41 °F
Humidity 79%
Rainfall 0.00 in
Snow Depth Not available.
UV 0 out of 12
Pollen 2.80 out of 12
Air Quality Not available.
Flu Activity Sporadic
METAR KICT 281253Z 36006KT 10SM SCT150 BKN180 BKN250 09/04 A3018 RMK AO2 SLP216 T00940039

More Conditions Fewer Conditions

Pressure 30.17 in
Visibility 10.0 miles
Clouds Scattered Clouds 15000 ft
Mostly Cloudy 18000 ft
Mostly Cloudy 25000 ft
Windchill 44 °F
Dew Point 41 °F
Humidity 79%
Rainfall 0.00 in
Snow Depth Not available.
UV 0 out of 12
Pollen 2.80 out of 12
Air Quality Not available.
Flu Activity Sporadic
METAR KICT 281253Z 36006KT 10SM SCT150 BKN180 BKN250 09/04 A3018 RMK AO2 SLP216 T00940039

More Conditions Fewer Conditions

10-Day Weather Forecast

Almanac

Astronomy

Apr. 28, 2015 Rise Set
Actual Time
Civil Twilight
Nautical Twilight
Astronomical Twilight
Moon
Length of Visible Light
Length of Day
Tomorrow will be .
, % of the Moon is Illuminated

Today's Extremes

State Highs State Lows

Community

WunderPhotos

Upload Photos

1,817,621 photos uploaded!

WunderBlogs® & News

Nearby

Air Quality

  Air Quality AQ Index Pollutant
Not available.

Snow Depth

Station Depth Elevation

Earthquake Activity

City Distance Mag. Time & Date
Minimum magnitude displayed is 2.5.

Coastal Water Temperatures

Place Temperature

Stations

Nearby Weather Stations

Station Location Temp. Windchill Dew Point Humidity Wind Precip. Elev Updated Type